createdAt,value
2022-08-03T00:02:32.367Z,20.75
2022-08-03T00:07:35.367Z,20.69
2022-08-03T00:12:38.376Z,20.62
2022-08-03T00:17:52.384Z,20.57
2022-08-03T00:22:56.922Z,20.53
2022-08-03T00:28:00.867Z,20.51
2022-08-03T00:33:05.565Z,20.49
2022-08-03T00:43:34.368Z,20.67
2022-08-03T00:48:39.812Z,20.69
2022-08-03T00:53:42.781Z,20.46
2022-08-03T00:58:46.448Z,20.28
2022-08-03T01:03:50.936Z,20.23
2022-08-03T01:09:02.267Z,20.18
2022-08-03T01:14:19.029Z,20.18
2022-08-03T01:19:32.711Z,20.13
2022-08-03T01:24:40.619Z,20.04
2022-08-03T01:29:53.325Z,20.05
2022-08-03T01:35:00.141Z,19.96
2022-08-03T01:40:04.126Z,19.92
2022-08-03T01:45:10.076Z,19.94
2022-08-03T01:50:14.480Z,19.98
2022-08-03T01:55:20.418Z,19.96
2022-08-03T02:00:26.542Z,19.94
2022-08-03T02:05:30.665Z,19.83
2022-08-03T02:10:35.903Z,19.71
2022-08-03T02:15:40.955Z,19.60
2022-08-03T02:20:44.640Z,19.61
2022-08-03T02:25:49.200Z,19.58
2022-08-03T02:30:54.825Z,19.50
2022-08-03T02:35:58.567Z,19.48
2022-08-03T02:41:06.087Z,19.41
2022-08-03T02:46:11.189Z,19.55
2022-08-03T02:51:15.018Z,19.54
2022-08-03T02:56:19.269Z,19.52
2022-08-03T03:01:25.164Z,19.57
2022-08-03T03:06:30.114Z,19.56
2022-08-03T03:11:33.584Z,19.64
2022-08-03T03:16:38.093Z,19.61
2022-08-03T03:21:41.473Z,19.70
2022-08-03T03:26:44.670Z,19.72
2022-08-03T03:31:49.668Z,19.80
2022-08-03T03:36:52.677Z,19.82
2022-08-03T03:41:55.809Z,19.71
2022-08-03T03:47:00.159Z,19.69
2022-08-03T03:52:03.174Z,19.67
2022-08-03T03:57:06.324Z,19.77
2022-08-03T04:02:11.365Z,19.79
2022-08-03T04:07:31.680Z,19.85
2022-08-03T04:12:35.355Z,19.92
2022-08-03T04:17:41.622Z,19.94
2022-08-03T04:22:44.635Z,19.98
2022-08-03T04:28:07.635Z,20.01
2022-08-03T04:33:13.372Z,20.06
2022-08-03T04:38:19.539Z,20.09
2022-08-03T04:43:23.664Z,20.15
2022-08-03T04:48:28.435Z,20.18
2022-08-03T04:53:31.598Z,20.11
2022-08-03T04:58:34.788Z,20.05
2022-08-03T05:03:39.293Z,20.07
2022-08-03T05:08:46.254Z,20.12
2022-08-03T05:13:49.983Z,20.21
2022-08-03T05:18:54.321Z,20.21
2022-08-03T05:23:57.253Z,20.19
2022-08-03T05:29:00.253Z,20.25
2022-08-03T05:34:04.539Z,20.34
2022-08-03T05:39:07.481Z,20.49
2022-08-03T05:44:10.491Z,20.59
2022-08-03T05:49:14.922Z,20.65
2022-08-03T05:54:17.904Z,20.64
2022-08-03T05:59:37.633Z,20.61
2022-08-03T06:04:42.668Z,20.63
2022-08-03T06:10:37.444Z,20.69
2022-08-03T06:15:11.237Z,20.76
2022-08-03T06:20:17.146Z,20.79
2022-08-03T06:25:21.244Z,20.82
2022-08-03T06:30:24.798Z,20.85
2022-08-03T06:35:29.256Z,20.83
2022-08-03T06:40:32.948Z,20.96
2022-08-03T06:45:36.405Z,21.09
2022-08-03T06:50:41.701Z,21.14
2022-08-03T06:55:45.567Z,21.12
2022-08-03T07:00:48.534Z,21.13
2022-08-03T07:05:52.931Z,21.15
2022-08-03T07:10:55.886Z,21.21
2022-08-03T07:15:58.863Z,21.29
2022-08-03T07:21:03.267Z,21.38
2022-08-03T07:26:06.451Z,21.46
2022-08-03T07:31:09.462Z,21.53
2022-08-03T07:36:13.738Z,21.57
2022-08-03T07:41:16.707Z,21.70
2022-08-03T07:46:19.656Z,21.84
2022-08-03T07:51:23.969Z,21.98
2022-08-03T07:56:26.961Z,22.08
2022-08-03T08:01:30.355Z,22.18
2022-08-03T08:06:34.711Z,22.29
2022-08-03T08:11:40.096Z,22.38
2022-08-03T08:16:43.372Z,22.48
2022-08-03T08:21:53.569Z,22.66
2022-08-03T08:27:05.675Z,22.79
2022-08-03T08:32:09.132Z,22.92
2022-08-03T08:37:13.416Z,23.00
2022-08-03T08:42:16.706Z,23.03
2022-08-03T08:47:20.302Z,23.10
2022-08-03T08:52:31.888Z,23.19
2022-08-03T08:57:44.758Z,23.29
2022-08-03T09:02:48.020Z,23.37
2022-08-03T09:07:53.065Z,23.51
2022-08-03T09:12:56.080Z,23.64
2022-08-03T09:17:59.587Z,23.73
2022-08-03T09:23:19.155Z,23.86
2022-08-03T09:29:01.558Z,24.01
2022-08-03T09:34:01.128Z,24.15
2022-08-03T09:39:06.438Z,24.04
2022-08-03T09:44:24.472Z,24.02
2022-08-03T09:49:28.533Z,23.96
2022-08-03T09:54:34.210Z,23.85
2022-08-03T09:59:41.172Z,23.80
2022-08-03T10:04:48.094Z,23.96
2022-08-03T10:10:30.520Z,24.41
2022-08-03T10:16:21.430Z,24.75
2022-08-03T10:20:48.647Z,25.01
2022-08-03T10:25:54.405Z,25.32
2022-08-03T10:30:57.536Z,25.59
2022-08-03T10:36:01.959Z,25.91
2022-08-03T10:41:07.459Z,26.28
2022-08-03T10:46:10.473Z,26.64
2022-08-03T10:51:14.229Z,26.97
2022-08-03T10:57:00.317Z,27.23
2022-08-03T11:02:18.473Z,27.02
2022-08-03T11:07:23.378Z,27.35
2022-08-03T11:12:30.803Z,27.62
2022-08-03T11:17:46.150Z,28.24
2022-08-03T11:23:01.106Z,28.20
2022-08-03T11:28:22.932Z,27.65
2022-08-03T11:33:33.012Z,27.26
2022-08-03T11:38:36.032Z,27.14
2022-08-03T11:43:46.406Z,27.04
2022-08-03T11:48:51.280Z,27.79
2022-08-03T11:53:55.213Z,28.34
2022-08-03T11:59:20.338Z,28.84
2022-08-03T12:04:23.984Z,29.42
2022-08-03T12:09:26.942Z,29.98
2022-08-03T12:14:49.729Z,30.13
2022-08-03T12:19:54.808Z,30.62
2022-08-03T12:24:57.751Z,30.82
2022-08-03T12:30:01.798Z,30.04
2022-08-03T12:35:06.838Z,30.53
2022-08-03T12:40:13.286Z,30.83
2022-08-03T12:45:26.351Z,30.95
2022-08-03T12:50:31.921Z,31.09
2022-08-03T12:55:57.855Z,30.07
2022-08-03T13:00:58.447Z,29.10
2022-08-03T13:06:02.881Z,28.56
2022-08-03T13:11:19.142Z,28.23
2022-08-03T13:16:22.965Z,27.91
2022-08-03T13:21:27.294Z,27.80
2022-08-03T13:26:30.265Z,27.80
2022-08-03T13:31:33.334Z,28.13
2022-08-03T13:37:06.362Z,27.60
2022-08-03T13:42:01.381Z,27.25
2022-08-03T13:47:04.367Z,27.00
2022-08-03T13:52:08.777Z,26.80
2022-08-03T13:58:03.617Z,26.67
2022-08-03T14:02:34.947Z,26.59
2022-08-03T14:07:39.290Z,26.55
2022-08-03T14:12:42.242Z,26.43
2022-08-03T14:17:49.869Z,26.34
2022-08-03T14:22:55.285Z,26.26
2022-08-03T14:27:58.181Z,26.39
2022-08-03T14:33:01.148Z,26.95
2022-08-03T14:38:05.462Z,27.34
2022-08-03T14:43:08.457Z,27.61
2022-08-03T14:50:10.535Z,27.81
2022-08-03T14:53:36.833Z,28.01
2022-08-03T14:58:39.831Z,27.73
2022-08-03T15:03:44.039Z,27.82
2022-08-03T15:09:13.785Z,27.70
2022-08-03T15:14:13.582Z,27.57
2022-08-03T15:20:01.177Z,27.21
2022-08-03T15:24:42.128Z,27.02
2022-08-03T15:30:06.873Z,27.18
2022-08-03T15:35:08.275Z,27.19
2022-08-03T15:40:13.401Z,27.06
2022-08-03T15:45:17.818Z,26.92
2022-08-03T15:50:23.396Z,26.64
2022-08-03T15:55:27.854Z,26.45
2022-08-03T16:00:33.404Z,26.29
2022-08-03T16:05:37.013Z,26.15
2022-08-03T16:10:41.425Z,26.00
2022-08-03T16:15:44.411Z,25.88
2022-08-03T16:20:47.437Z,25.82
2022-08-03T16:25:51.809Z,25.71
2022-08-03T16:30:54.789Z,25.60
2022-08-03T16:35:58.065Z,25.46
2022-08-03T16:41:02.405Z,25.39
2022-08-03T16:46:05.411Z,25.34
2022-08-03T16:51:10.114Z,25.26
2022-08-03T16:56:14.478Z,25.23
2022-08-03T17:01:22.230Z,25.19
2022-08-03T17:06:34.262Z,25.14
2022-08-03T17:11:46.439Z,25.13
2022-08-03T17:16:53.914Z,25.11
2022-08-03T17:22:01.111Z,25.06
2022-08-03T17:28:41.654Z,25.02
2022-08-03T17:32:33.525Z,24.98
2022-08-03T17:37:57.722Z,24.94
2022-08-03T17:43:01.890Z,24.90
2022-08-03T17:48:25.389Z,24.82
2022-08-03T17:53:30.678Z,24.75
2022-08-03T17:58:41.530Z,24.71
2022-08-03T18:03:58.262Z,24.65
2022-08-03T18:10:06.453Z,24.56
2022-08-03T18:14:57.201Z,24.50
2022-08-03T18:20:11.649Z,24.46
2022-08-03T18:25:42.737Z,24.39
2022-08-03T18:30:53.507Z,24.31
2022-08-03T18:35:58.079Z,24.25
2022-08-03T18:41:01.957Z,24.17
2022-08-03T18:46:07.484Z,24.11
2022-08-03T18:51:11.834Z,24.02
2022-08-03T18:56:35.655Z,23.94
2022-08-03T19:02:00.947Z,23.87
2022-08-03T19:07:07.926Z,23.80
2022-08-03T19:12:30.511Z,23.72
2022-08-03T19:17:38.377Z,23.61
2022-08-03T19:22:45.852Z,23.50
2022-08-03T19:27:49.314Z,23.42
2022-08-03T19:32:54.367Z,23.36
2022-08-03T19:37:57.564Z,23.28
2022-08-03T19:43:08.579Z,23.22
2022-08-03T19:48:14.831Z,23.17
2022-08-03T19:53:18.517Z,23.09
2022-08-03T19:58:28.483Z,23.02
2022-08-03T20:03:42.819Z,22.97
2022-08-03T20:08:48.199Z,22.92
2022-08-03T20:13:55.504Z,22.88
2022-08-03T20:19:01.662Z,22.82
2022-08-03T20:24:24.411Z,22.78
2022-08-03T20:29:42.728Z,22.77
2022-08-03T20:34:55.458Z,22.72
2022-08-03T20:39:58.464Z,22.63
2022-08-03T20:45:05.170Z,22.59
2022-08-03T20:50:11.483Z,22.53
2022-08-03T20:55:14.794Z,22.47
2022-08-03T21:00:21.878Z,22.48
2022-08-03T21:05:47.663Z,22.47
2022-08-03T21:10:50.032Z,22.55
2022-08-03T21:16:07.146Z,22.52
2022-08-03T21:21:19.291Z,22.50
2022-08-03T21:26:23.340Z,22.45
2022-08-03T21:31:26.991Z,22.43
2022-08-03T21:36:32.492Z,22.40
2022-08-03T21:41:36.716Z,22.34
2022-08-03T21:46:41.022Z,22.34
2022-08-03T21:51:46.305Z,22.29
2022-08-03T21:56:52.121Z,22.23
2022-08-03T22:01:58.590Z,22.18
2022-08-03T22:07:03.134Z,22.15
2022-08-03T22:12:06.685Z,22.08
2022-08-03T22:17:09.798Z,22.01
2022-08-03T22:22:15.509Z,21.94
2022-08-03T22:27:34.369Z,21.90
2022-08-03T22:32:38.270Z,21.90
2022-08-03T22:37:42.990Z,21.81
2022-08-03T22:42:49.472Z,21.77
2022-08-03T22:47:56.106Z,21.70
2022-08-03T22:53:00.444Z,21.65
2022-08-03T22:58:03.460Z,21.54
2022-08-03T23:03:07.375Z,21.54
2022-08-03T23:08:13.345Z,21.53
2022-08-03T23:13:17.472Z,21.47
2022-08-03T23:18:21.934Z,21.46
2022-08-03T23:23:26.512Z,21.36
2022-08-03T23:28:31.206Z,21.36
2022-08-03T23:33:34.786Z,21.25
2022-08-03T23:38:39.771Z,21.25
2022-08-03T23:43:51.942Z,21.26
2022-08-03T23:48:57.799Z,21.17
2022-08-03T23:54:04.440Z,21.17
2022-08-03T23:59:10.984Z,21.11
